Time;durP1;ratioP1;P1;durP2;ratioP2;P2;SDS_P1;SDS_P2;PMS_P1;PMS_P2;Temp;Humidity;BMP_temperature;BMP_pressure;BME280_temperature;BME280_humidity;BME280_pressure;Samples;Min_cycle;Max_cycle;Signal;HPM_P1;HPM_P2
2023/03/11 00:01:10;;;;;;;6.35;2.15;;;;;;;;;;4997365;28;20042;-54
2023/03/11 00:03:35;;;;;;;5.22;2.60;;;;;;;;;;5007564;28;20034;-55
2023/03/11 00:06:01;;;;;;;9.85;2.80;;;;;;;;;;5007326;28;20029;-54
2023/03/11 00:08:27;;;;;;;14.73;2.83;;;;;;;;;;5007162;28;20033;-54
2023/03/11 00:10:54;;;;;;;4.90;2.10;;;;;;;;;;5007652;28;20029;-54
2023/03/11 00:13:20;;;;;;;9.95;2.92;;;;;;;;;;5007016;28;20117;-55
2023/03/11 00:15:48;;;;;;;9.70;2.50;;;;;;;;;;5007805;28;20582;-53
2023/03/11 00:18:14;;;;;;;6.53;2.85;;;;;;;;;;5006732;28;20046;-55
2023/03/11 00:20:42;;;;;;;5.88;2.78;;;;;;;;;;5007996;28;20033;-55
2023/03/11 00:23:09;;;;;;;12.63;2.75;;;;;;;;;;5007176;28;20042;-54
2023/03/11 00:25:37;;;;;;;7.88;3.00;;;;;;;;;;5007271;28;20084;-54
2023/03/11 00:28:03;;;;;;;9.10;3.35;;;;;;;;;;5003780;28;20529;-55
2023/03/11 00:30:29;;;;;;;11.05;2.95;;;;;;;;;;5003499;28;20555;-52
2023/03/11 00:32:57;;;;;;;11.02;3.00;;;;;;;;;;5006459;28;20049;-51
2023/03/11 00:35:28;;;;;;;9.25;2.45;;;;;;;;;;5007824;28;20021;-54
2023/03/11 00:37:56;;;;;;;9.48;2.72;;;;;;;;;;5007042;28;20034;-55
2023/03/11 00:40:22;;;;;;;12.57;2.65;;;;;;;;;;5007124;28;20042;-52
2023/03/11 00:42:48;;;;;;;10.93;2.63;;;;;;;;;;5007296;28;20502;-54
2023/03/11 00:45:14;;;;;;;4.30;2.15;;;;;;;;;;5007061;28;20042;-52
2023/03/11 00:47:39;;;;;;;11.85;2.40;;;;;;;;;;5007284;28;20622;-54
2023/03/11 00:50:06;;;;;;;7.00;2.85;;;;;;;;;;5005807;28;20030;-54
2023/03/11 00:52:31;;;;;;;7.43;2.50;;;;;;;;;;5005654;28;20042;-54
2023/03/11 00:55:00;;;;;;;5.70;2.50;;;;;;;;;;5006781;28;20033;-55
2023/03/11 00:57:27;;;;;;;6.20;3.05;;;;;;;;;;5006412;28;20088;-54
2023/03/11 00:59:53;;;;;;;13.50;2.85;;;;;;;;;;4999334;28;20030;-53
2023/03/11 01:02:18;;;;;;;11.40;2.90;;;;;;;;;;5006925;28;20548;-54
2023/03/11 01:04:44;;;;;;;10.57;3.35;;;;;;;;;;5006611;28;20048;-53
2023/03/11 01:07:09;;;;;;;18.63;3.67;;;;;;;;;;5006618;28;20042;-54
2023/03/11 01:09:34;;;;;;;19.42;2.72;;;;;;;;;;4996311;28;20026;-54
2023/03/11 01:12:00;;;;;;;10.52;2.40;;;;;;;;;;5002312;28;20029;-55
2023/03/11 01:14:25;;;;;;;4.95;2.55;;;;;;;;;;5005095;28;20025;-54
2023/03/11 01:16:50;;;;;;;12.32;3.00;;;;;;;;;;5006176;28;20482;-52
2023/03/11 01:19:15;;;;;;;8.27;2.53;;;;;;;;;;5005683;28;20057;-54
2023/03/11 01:21:41;;;;;;;3.97;2.35;;;;;;;;;;5006293;28;20141;-54
2023/03/11 01:24:07;;;;;;;4.95;2.55;;;;;;;;;;5006818;28;20033;-54
2023/03/11 01:26:33;;;;;;;5.80;2.42;;;;;;;;;;5005021;28;20037;-54
2023/03/11 01:28:58;;;;;;;6.70;2.92;;;;;;;;;;5006688;28;20766;-54
2023/03/11 01:31:23;;;;;;;11.00;2.65;;;;;;;;;;5006157;28;20095;-54
2023/03/11 01:33:48;;;;;;;7.05;2.97;;;;;;;;;;4996810;28;20148;-54
2023/03/11 01:36:14;;;;;;;13.30;3.33;;;;;;;;;;5004673;28;20046;-53
2023/03/11 01:38:39;;;;;;;8.77;3.55;;;;;;;;;;5005778;28;20156;-53
2023/03/11 01:41:05;;;;;;;11.32;3.95;;;;;;;;;;5003899;28;20115;-55
2023/03/11 01:43:43;;;;;;;7.72;3.25;;;;;;;;;;4998120;28;20554;-53
2023/03/11 01:46:52;;;;;;;8.77;3.35;;;;;;;;;;5001651;28;20547;-55
2023/03/11 01:49:20;;;;;;;7.13;2.45;;;;;;;;;;4998704;28;20042;-55
2023/03/11 01:51:52;;;;;;;7.43;2.67;;;;;;;;;;5005478;28;20049;-53
2023/03/11 01:54:27;;;;;;;6.60;2.58;;;;;;;;;;4998211;28;20034;-55
2023/03/11 01:56:54;;;;;;;10.32;3.38;;;;;;;;;;4998362;28;20069;-53
2023/03/11 01:59:23;;;;;;;6.72;2.75;;;;;;;;;;5006496;28;20108;-53
2023/03/11 02:01:54;;;;;;;5.30;2.88;;;;;;;;;;5004914;28;20073;-52
2023/03/11 02:04:20;;;;;;;12.52;3.00;;;;;;;;;;5001532;28;20030;-52
2023/03/11 02:06:46;;;;;;;13.68;4.07;;;;;;;;;;5005455;28;20585;-53
2023/03/11 02:09:11;;;;;;;4.88;2.72;;;;;;;;;;5006013;28;20057;-55
2023/03/11 02:11:36;;;;;;;7.22;3.00;;;;;;;;;;5005489;28;20032;-53
2023/03/11 02:14:05;;;;;;;8.45;2.38;;;;;;;;;;5005175;28;20053;-52
2023/03/11 02:16:30;;;;;;;9.63;3.42;;;;;;;;;;5007359;28;20089;-55
2023/03/11 02:18:59;;;;;;;9.07;2.85;;;;;;;;;;5005226;28;20033;-53
2023/03/11 02:21:27;;;;;;;4.97;2.80;;;;;;;;;;5004170;28;20407;-54
2023/03/11 02:24:18;;;;;;;7.05;3.03;;;;;;;;;;5005636;28;20033;-52
2023/03/11 02:26:52;;;;;;;6.40;2.63;;;;;;;;;;5005726;28;20032;-54
2023/03/11 02:29:18;;;;;;;5.85;2.45;;;;;;;;;;5005399;28;20040;-55
2023/03/11 02:31:45;;;;;;;11.25;3.33;;;;;;;;;;4995582;28;20844;-53
2023/03/11 02:34:20;;;;;;;6.53;2.47;;;;;;;;;;5005432;28;20076;-55
2023/03/11 02:36:45;;;;;;;8.77;2.88;;;;;;;;;;5004869;28;20141;-54
2023/03/11 02:39:10;;;;;;;9.65;2.72;;;;;;;;;;5000544;28;20061;-54
2023/03/11 02:41:38;;;;;;;6.35;2.50;;;;;;;;;;5004367;28;20030;-53
2023/03/11 02:44:07;;;;;;;8.57;2.95;;;;;;;;;;5004950;28;20065;-54
2023/03/11 02:46:33;;;;;;;5.35;2.60;;;;;;;;;;5004150;28;20132;-55
2023/03/11 02:48:58;;;;;;;9.75;3.15;;;;;;;;;;5004398;28;20096;-53
2023/03/11 02:51:24;;;;;;;7.28;2.67;;;;;;;;;;5005206;28;20034;-55
2023/03/11 02:53:57;;;;;;;6.18;3.28;;;;;;;;;;5008420;28;20037;-54
2023/03/11 02:56:22;;;;;;;6.03;2.47;;;;;;;;;;5008627;28;20029;-53
2023/03/11 02:58:47;;;;;;;6.78;2.72;;;;;;;;;;5007926;28;20061;-55
2023/03/11 03:01:13;;;;;;;7.28;3.40;;;;;;;;;;5009039;28;20041;-54
2023/03/11 03:03:38;;;;;;;6.43;2.97;;;;;;;;;;5007883;28;20534;-55
2023/03/11 03:06:04;;;;;;;5.07;2.45;;;;;;;;;;5004241;28;20025;-54
2023/03/11 03:08:30;;;;;;;8.55;3.22;;;;;;;;;;5007854;28;20029;-55
2023/03/11 03:10:55;;;;;;;10.02;2.95;;;;;;;;;;5003131;28;20042;-53
2023/03/11 03:13:20;;;;;;;8.60;2.70;;;;;;;;;;5005643;28;20503;-53
2023/03/11 03:15:45;;;;;;;5.80;3.15;;;;;;;;;;5004617;28;20125;-53
2023/03/11 03:18:11;;;;;;;3.72;2.58;;;;;;;;;;5008296;28;20045;-55
2023/03/11 03:20:37;;;;;;;6.85;2.58;;;;;;;;;;5007551;28;20089;-55
2023/03/11 03:23:02;;;;;;;7.03;2.80;;;;;;;;;;5005812;28;20073;-50
2023/03/11 03:25:28;;;;;;;7.22;3.65;;;;;;;;;;5007356;28;20034;-53
2023/03/11 03:27:53;;;;;;;6.63;3.13;;;;;;;;;;5008802;28;20065;-55
2023/03/11 03:30:18;;;;;;;7.05;3.17;;;;;;;;;;5003761;28;20046;-55
2023/03/11 03:32:44;;;;;;;13.30;3.42;;;;;;;;;;5004121;28;20080;-55
2023/03/11 03:35:09;;;;;;;5.32;2.97;;;;;;;;;;5007630;28;20133;-53
2023/03/11 03:37:36;;;;;;;20.10;3.00;;;;;;;;;;5004994;28;20034;-54
2023/03/11 03:40:06;;;;;;;6.68;3.67;;;;;;;;;;4995459;28;20092;-54
2023/03/11 03:42:35;;;;;;;15.80;3.17;;;;;;;;;;5001912;28;20042;-54
2023/03/11 03:45:01;;;;;;;5.75;2.63;;;;;;;;;;5005761;28;20034;-55
2023/03/11 03:47:26;;;;;;;13.63;2.75;;;;;;;;;;4998856;28;20030;-53
2023/03/11 03:49:52;;;;;;;6.80;3.28;;;;;;;;;;5006843;28;20595;-54
2023/03/11 03:52:17;;;;;;;8.43;3.33;;;;;;;;;;5007314;28;20514;-54
2023/03/11 03:54:42;;;;;;;14.45;3.55;;;;;;;;;;5007458;28;20034;-55
2023/03/11 03:57:08;;;;;;;9.25;2.70;;;;;;;;;;5006558;28;20037;-54
2023/03/11 03:59:33;;;;;;;5.38;2.85;;;;;;;;;;5006000;28;20029;-53
2023/03/11 04:01:59;;;;;;;12.00;3.83;;;;;;;;;;5005333;28;20897;-54
2023/03/11 04:04:24;;;;;;;4.90;2.55;;;;;;;;;;5006191;28;20042;-55
2023/03/11 04:06:49;;;;;;;12.82;3.40;;;;;;;;;;5007890;28;20550;-55
2023/03/11 04:09:15;;;;;;;5.00;2.83;;;;;;;;;;5000297;28;20038;-55
2023/03/11 04:11:40;;;;;;;6.72;2.90;;;;;;;;;;5005382;28;20034;-54
2023/03/11 04:14:06;;;;;;;5.90;2.80;;;;;;;;;;5006382;28;20042;-55
2023/03/11 04:16:31;;;;;;;10.13;3.10;;;;;;;;;;5006954;28;20132;-51
2023/03/11 04:18:56;;;;;;;7.32;3.30;;;;;;;;;;5007179;28;20030;-55
2023/03/11 04:21:22;;;;;;;6.38;3.17;;;;;;;;;;5005777;28;20037;-53
2023/03/11 04:23:47;;;;;;;8.75;3.33;;;;;;;;;;5006688;28;20040;-55
2023/03/11 04:26:13;;;;;;;11.45;3.72;;;;;;;;;;5007892;28;20050;-54
2023/03/11 04:28:38;;;;;;;8.02;3.33;;;;;;;;;;5007116;28;20594;-54
2023/03/11 04:31:04;;;;;;;8.70;3.20;;;;;;;;;;4996557;28;20042;-55
2023/03/11 04:33:30;;;;;;;8.40;3.42;;;;;;;;;;5005841;28;20030;-52
2023/03/11 04:35:56;;;;;;;7.95;3.15;;;;;;;;;;5006535;28;20101;-54
2023/03/11 04:38:21;;;;;;;4.93;2.75;;;;;;;;;;5008052;28;20024;-53
2023/03/11 04:40:46;;;;;;;5.75;3.22;;;;;;;;;;5006295;28;20483;-52
2023/03/11 04:43:12;;;;;;;6.57;2.95;;;;;;;;;;5006724;28;20078;-54
2023/03/11 04:45:43;;;;;;;7.40;3.83;;;;;;;;;;5004468;28;20053;-54
2023/03/11 04:48:09;;;;;;;10.38;3.03;;;;;;;;;;5005615;28;20030;-54
2023/03/11 04:50:34;;;;;;;9.68;3.63;;;;;;;;;;5006818;28;20032;-53
2023/03/11 04:52:59;;;;;;;7.35;3.28;;;;;;;;;;5000504;28;20027;-53
2023/03/11 04:55:25;;;;;;;5.25;2.85;;;;;;;;;;5004604;28;20058;-53
2023/03/11 04:57:50;;;;;;;13.23;3.30;;;;;;;;;;5006193;28;20037;-54
2023/03/11 05:00:18;;;;;;;5.43;3.08;;;;;;;;;;5005934;28;20037;-52
2023/03/11 05:02:44;;;;;;;4.43;2.70;;;;;;;;;;5004349;28;20101;-56
2023/03/11 05:05:09;;;;;;;4.13;2.45;;;;;;;;;;5006556;28;20121;-54
2023/03/11 05:07:35;;;;;;;5.22;2.53;;;;;;;;;;5006363;28;20511;-54
2023/03/11 05:10:02;;;;;;;7.50;3.08;;;;;;;;;;5004868;28;20111;-53
2023/03/11 05:12:27;;;;;;;12.55;3.75;;;;;;;;;;5006089;28;20036;-54
2023/03/11 05:14:52;;;;;;;9.30;3.17;;;;;;;;;;5004155;28;20722;-54
2023/03/11 05:17:18;;;;;;;7.97;3.15;;;;;;;;;;5006000;28;20046;-54
2023/03/11 05:19:44;;;;;;;10.25;3.38;;;;;;;;;;5004466;28;20032;-55
2023/03/11 05:22:10;;;;;;;8.95;3.10;;;;;;;;;;5005254;28;20037;-53
2023/03/11 05:24:36;;;;;;;11.80;3.55;;;;;;;;;;5006433;28;20080;-55
2023/03/11 05:27:02;;;;;;;6.47;3.08;;;;;;;;;;4999886;28;20021;-55
2023/03/11 05:29:27;;;;;;;7.00;3.10;;;;;;;;;;5001721;28;20026;-53
2023/03/11 05:31:53;;;;;;;9.32;3.42;;;;;;;;;;5005510;28;20104;-56
2023/03/11 05:34:19;;;;;;;25.98;4.43;;;;;;;;;;5006134;28;20030;-53
2023/03/11 05:36:44;;;;;;;11.23;3.85;;;;;;;;;;5002661;28;20471;-55
2023/03/11 05:39:10;;;;;;;11.07;3.65;;;;;;;;;;5004860;28;20060;-55
2023/03/11 05:41:35;;;;;;;11.10;3.47;;;;;;;;;;5005845;28;20028;-55
2023/03/11 05:44:01;;;;;;;8.20;3.58;;;;;;;;;;5005349;28;20136;-55
2023/03/11 05:46:27;;;;;;;7.00;2.92;;;;;;;;;;5004911;28;20034;-54
2023/03/11 05:48:52;;;;;;;7.57;3.20;;;;;;;;;;4998646;28;20084;-53
2023/03/11 05:51:17;;;;;;;8.90;4.05;;;;;;;;;;5004388;28;20041;-53
2023/03/11 05:53:47;;;;;;;8.25;3.15;;;;;;;;;;5006052;28;20025;-54
2023/03/11 05:56:17;;;;;;;10.48;3.47;;;;;;;;;;5005353;28;20054;-54
2023/03/11 05:58:42;;;;;;;10.45;4.25;;;;;;;;;;5006337;28;20548;-55
2023/03/11 06:01:10;;;;;;;10.32;3.03;;;;;;;;;;4999464;28;20030;-54
2023/03/11 06:03:36;;;;;;;6.10;3.47;;;;;;;;;;5004785;28;20062;-54
2023/03/11 06:06:01;;;;;;;5.18;2.53;;;;;;;;;;5005481;28;20065;-55
2023/03/11 06:08:26;;;;;;;10.68;3.53;;;;;;;;;;5004658;28;20045;-54
2023/03/11 06:10:52;;;;;;;9.35;3.47;;;;;;;;;;5000987;28;20042;-54
2023/03/11 06:13:17;;;;;;;5.60;3.50;;;;;;;;;;5004438;28;20026;-52
2023/03/11 06:15:43;;;;;;;7.97;3.05;;;;;;;;;;5004578;28;20026;-55
2023/03/11 06:18:08;;;;;;;6.45;3.10;;;;;;;;;;5005630;28;20044;-54
2023/03/11 06:20:35;;;;;;;6.63;3.85;;;;;;;;;;5002853;28;20058;-53
2023/03/11 06:23:00;;;;;;;6.07;3.65;;;;;;;;;;5003889;28;20125;-53
2023/03/11 06:25:25;;;;;;;9.35;4.15;;;;;;;;;;5002560;28;20570;-54
2023/03/11 06:27:52;;;;;;;15.77;4.35;;;;;;;;;;5005209;28;20041;-55
2023/03/11 06:30:18;;;;;;;6.40;3.80;;;;;;;;;;5007346;28;20037;-56
2023/03/11 06:32:45;;;;;;;9.20;4.30;;;;;;;;;;5002991;28;20036;-55
2023/03/11 06:35:10;;;;;;;12.15;3.90;;;;;;;;;;5006011;28;20044;-51
2023/03/11 06:37:36;;;;;;;16.98;4.65;;;;;;;;;;5004705;28;20458;-55
2023/03/11 06:40:04;;;;;;;10.38;4.75;;;;;;;;;;5007443;28;20044;-52
2023/03/11 06:42:29;;;;;;;14.98;4.78;;;;;;;;;;5008293;28;20030;-54
2023/03/11 06:44:55;;;;;;;9.48;4.30;;;;;;;;;;5005115;28;20030;-54
2023/03/11 06:47:20;;;;;;;11.40;4.60;;;;;;;;;;5001822;28;20157;-54
2023/03/11 06:49:45;;;;;;;10.68;4.68;;;;;;;;;;5005416;28;20042;-54
2023/03/11 06:52:10;;;;;;;9.90;4.35;;;;;;;;;;5006544;28;20088;-55
2023/03/11 06:54:36;;;;;;;15.50;5.32;;;;;;;;;;5000691;28;20085;-52
2023/03/11 06:57:02;;;;;;;13.25;5.13;;;;;;;;;;5003519;28;20036;-54
2023/03/11 06:59:27;;;;;;;14.73;5.18;;;;;;;;;;5002042;28;20072;-55
2023/03/11 07:01:53;;;;;;;16.48;6.35;;;;;;;;;;5006234;28;20121;-52
2023/03/11 07:04:19;;;;;;;9.60;5.00;;;;;;;;;;4998466;28;20030;-54
2023/03/11 07:06:44;;;;;;;12.02;4.50;;;;;;;;;;5007941;28;20083;-55
2023/03/11 07:09:10;;;;;;;9.75;5.55;;;;;;;;;;5005541;28;20046;-56
2023/03/11 07:11:35;;;;;;;15.73;6.25;;;;;;;;;;5001125;28;20029;-52
2023/03/11 07:14:00;;;;;;;17.50;5.53;;;;;;;;;;4997101;28;20096;-52
2023/03/11 07:16:28;;;;;;;17.38;5.80;;;;;;;;;;5006897;28;20034;-53
2023/03/11 07:18:55;;;;;;;18.75;6.28;;;;;;;;;;4999480;28;20117;-54
2023/03/11 07:21:22;;;;;;;11.77;6.10;;;;;;;;;;5002239;28;20407;-54
2023/03/11 07:23:51;;;;;;;14.95;6.63;;;;;;;;;;5002672;28;20037;-53
2023/03/11 07:26:16;;;;;;;19.70;5.80;;;;;;;;;;5008017;28;20042;-53
2023/03/11 07:28:43;;;;;;;15.55;6.28;;;;;;;;;;5008144;28;20179;-54
2023/03/11 07:31:14;;;;;;;13.68;5.88;;;;;;;;;;5007910;28;20041;-52
2023/03/11 07:33:40;;;;;;;9.48;4.75;;;;;;;;;;5007994;28;20113;-54
2023/03/11 07:36:10;;;;;;;14.13;5.45;;;;;;;;;;4999151;28;20140;-53
2023/03/11 07:38:36;;;;;;;14.95;6.40;;;;;;;;;;5003205;28;20411;-53
2023/03/11 07:41:02;;;;;;;14.05;5.65;;;;;;;;;;4990397;28;20045;-54
2023/03/11 07:43:27;;;;;;;14.27;6.30;;;;;;;;;;5007841;28;20038;-55
2023/03/11 07:46:05;;;;;;;16.27;6.10;;;;;;;;;;5002058;28;20033;-54
2023/03/11 07:48:31;;;;;;;15.38;5.97;;;;;;;;;;5001433;28;20038;-54
2023/03/11 07:51:01;;;;;;;17.35;6.55;;;;;;;;;;4997522;28;20052;-55
2023/03/11 07:53:26;;;;;;;19.25;6.38;;;;;;;;;;5004777;28;20609;-55
2023/03/11 07:55:56;;;;;;;14.05;6.15;;;;;;;;;;5007204;28;20053;-54
2023/03/11 07:58:21;;;;;;;14.82;6.25;;;;;;;;;;5007542;28;20057;-50
2023/03/11 08:00:46;;;;;;;12.57;6.47;;;;;;;;;;5003578;28;20041;-53
2023/03/11 08:03:12;;;;;;;15.32;6.35;;;;;;;;;;5006345;28;20045;-54
2023/03/11 08:05:37;;;;;;;14.05;6.38;;;;;;;;;;5007844;28;20041;-53
2023/03/11 08:08:02;;;;;;;19.38;7.05;;;;;;;;;;5006412;28;20057;-55
2023/03/11 08:10:28;;;;;;;18.52;7.13;;;;;;;;;;4999266;28;20091;-55
2023/03/11 08:12:53;;;;;;;17.27;7.10;;;;;;;;;;5005054;28;20038;-55
2023/03/11 08:15:18;;;;;;;14.88;6.50;;;;;;;;;;5007034;28;20712;-55
2023/03/11 08:17:43;;;;;;;15.77;7.13;;;;;;;;;;5007511;28;20050;-55
2023/03/11 08:20:10;;;;;;;16.25;6.53;;;;;;;;;;5003529;28;20037;-54
2023/03/11 08:22:35;;;;;;;17.10;7.82;;;;;;;;;;5006877;28;20617;-54
2023/03/11 08:25:00;;;;;;;15.70;6.95;;;;;;;;;;5001002;28;20077;-54
2023/03/11 08:27:27;;;;;;;18.38;6.68;;;;;;;;;;5006304;28;20030;-54
2023/03/11 08:29:52;;;;;;;20.80;8.15;;;;;;;;;;5006477;28;20053;-54
2023/03/11 08:32:17;;;;;;;24.85;7.85;;;;;;;;;;5007622;28;20053;-55
2023/03/11 08:34:43;;;;;;;21.20;7.80;;;;;;;;;;5004763;28;20034;-54
2023/03/11 08:37:08;;;;;;;16.80;6.78;;;;;;;;;;5005742;28;20128;-54
2023/03/11 08:39:33;;;;;;;18.90;7.43;;;;;;;;;;5004871;28;20419;-53
2023/03/11 08:41:59;;;;;;;14.30;6.93;;;;;;;;;;5001499;28;20093;-54
2023/03/11 08:44:24;;;;;;;11.35;5.72;;;;;;;;;;4997271;28;20587;-54
2023/03/11 08:46:50;;;;;;;12.50;5.75;;;;;;;;;;4989766;28;20181;-54
2023/03/11 08:49:15;;;;;;;22.27;7.85;;;;;;;;;;5005786;28;20147;-55
2023/03/11 08:51:41;;;;;;;16.98;6.22;;;;;;;;;;5005926;28;20116;-55
2023/03/11 08:54:07;;;;;;;19.58;6.95;;;;;;;;;;4998042;28;20037;-54
2023/03/11 08:56:32;;;;;;;22.98;6.40;;;;;;;;;;4984703;28;20691;-55
2023/03/11 08:58:58;;;;;;;11.60;4.95;;;;;;;;;;5000932;28;20406;-54
2023/03/11 09:01:24;;;;;;;17.85;6.95;;;;;;;;;;5004002;28;20046;-54
2023/03/11 09:03:50;;;;;;;14.13;5.05;;;;;;;;;;5001831;28;20049;-53
2023/03/11 09:06:16;;;;;;;17.85;6.10;;;;;;;;;;5005510;28;20038;-55
2023/03/11 09:08:43;;;;;;;18.58;5.18;;;;;;;;;;5003302;28;20030;-57
2023/03/11 09:11:09;;;;;;;13.43;5.38;;;;;;;;;;5002662;28;20041;-56
2023/03/11 09:13:34;;;;;;;13.32;4.88;;;;;;;;;;5005078;28;20048;-56
2023/03/11 09:16:00;;;;;;;11.68;4.25;;;;;;;;;;5003968;28;20582;-56
2023/03/11 09:18:26;;;;;;;8.25;4.35;;;;;;;;;;5004768;28;20046;-55
2023/03/11 09:20:51;;;;;;;13.68;4.10;;;;;;;;;;4996897;28;20104;-56
2023/03/11 09:23:17;;;;;;;8.48;4.28;;;;;;;;;;5000869;28;20029;-56
2023/03/11 09:25:42;;;;;;;15.02;4.93;;;;;;;;;;5004756;28;20786;-56
2023/03/11 09:28:08;;;;;;;15.35;4.65;;;;;;;;;;5005277;28;20543;-56
2023/03/11 09:30:34;;;;;;;11.80;4.35;;;;;;;;;;5005330;28;20026;-56
2023/03/11 09:32:59;;;;;;;9.00;3.83;;;;;;;;;;5003612;28;20029;-56
2023/03/11 09:35:25;;;;;;;9.70;3.95;;;;;;;;;;4998398;28;20045;-56
2023/03/11 09:37:50;;;;;;;12.80;3.58;;;;;;;;;;5000195;28;20045;-57
2023/03/11 09:40:19;;;;;;;10.15;3.83;;;;;;;;;;5004882;28;20041;-57
2023/03/11 09:42:44;;;;;;;8.27;3.90;;;;;;;;;;5003899;28;20468;-57
2023/03/11 09:45:17;;;;;;;11.38;4.38;;;;;;;;;;5005115;28;20857;-57
2023/03/11 09:48:41;;;;;;;7.85;3.72;;;;;;;;;;5006338;28;20025;-57
2023/03/11 09:51:14;;;;;;;19.88;4.57;;;;;;;;;;4931083;28;20036;-57
2023/03/11 09:53:44;;;;;;;8.80;2.85;;;;;;;;;;5004711;28;20017;-57
2023/03/11 09:56:20;;;;;;;10.02;2.40;;;;;;;;;;5004862;28;20034;-56
2023/03/11 09:58:49;;;;;;;9.18;2.42;;;;;;;;;;5005986;28;20572;-57
2023/03/11 10:01:17;;;;;;;5.03;2.70;;;;;;;;;;5005017;28;20053;-56
2023/03/11 10:03:43;;;;;;;5.25;2.58;;;;;;;;;;4996944;28;20596;-57
2023/03/11 10:06:15;;;;;;;11.05;2.63;;;;;;;;;;5002237;28;20515;-57
2023/03/11 10:08:46;;;;;;;5.75;2.22;;;;;;;;;;5006287;28;20022;-56
2023/03/11 10:11:21;;;;;;;9.93;3.25;;;;;;;;;;5005175;28;20060;-57
2023/03/11 10:14:09;;;;;;;10.95;3.22;;;;;;;;;;5005848;28;20048;-56
2023/03/11 10:16:45;;;;;;;11.65;2.67;;;;;;;;;;4995544;28;20034;-57
2023/03/11 10:19:32;;;;;;;7.07;3.10;;;;;;;;;;5004160;28;20056;-57
2023/03/11 10:22:10;;;;;;;9.90;1.80;;;;;;;;;;5004942;28;20030;-57
2023/03/11 10:24:49;;;;;;;6.97;1.60;;;;;;;;;;5005532;28;20038;-56
2023/03/11 10:27:21;;;;;;;9.13;2.22;;;;;;;;;;5005093;28;20526;-57
2023/03/11 10:30:02;;;;;;;4.70;2.17;;;;;;;;;;5005892;28;20048;-56
2023/03/11 10:32:51;;;;;;;5.90;1.70;;;;;;;;;;4993094;28;20121;-57
2023/03/11 10:35:21;;;;;;;3.63;1.55;;;;;;;;;;5005629;28;20077;-57
2023/03/11 10:38:12;;;;;;;10.38;1.42;;;;;;;;;;5005653;28;20045;-57
2023/03/11 10:40:45;;;;;;;7.18;2.30;;;;;;;;;;5004320;28;20096;-57
2023/03/11 10:43:17;;;;;;;4.35;1.95;;;;;;;;;;5003706;28;20045;-55
2023/03/11 10:45:47;;;;;;;14.45;3.08;;;;;;;;;;4992142;28;20104;-57
2023/03/11 10:48:15;;;;;;;6.47;1.92;;;;;;;;;;5004676;28;20036;-58
2023/03/11 10:50:48;;;;;;;3.22;1.48;;;;;;;;;;5004665;28;20018;-57
2023/03/11 10:53:16;;;;;;;3.90;1.70;;;;;;;;;;4995026;28;20053;-57
2023/03/11 10:55:50;;;;;;;5.63;1.90;;;;;;;;;;5005202;28;20030;-57
2023/03/11 10:58:22;;;;;;;6.30;1.80;;;;;;;;;;5005010;28;20738;-56
2023/03/11 11:01:13;;;;;;;8.98;2.33;;;;;;;;;;5004625;28;20046;-57
2023/03/11 11:03:44;;;;;;;7.20;1.80;;;;;;;;;;4994123;28;20065;-57
2023/03/11 11:06:36;;;;;;;5.05;1.92;;;;;;;;;;4991035;28;20031;-57
2023/03/11 11:09:20;;;;;;;8.70;1.92;;;;;;;;;;4998852;28;20046;-57
2023/03/11 11:12:13;;;;;;;6.70;1.90;;;;;;;;;;4990881;28;20079;-56
2023/03/11 11:14:46;;;;;;;4.63;1.52;;;;;;;;;;5001931;28;20042;-56
2023/03/11 11:17:25;;;;;;;8.07;1.60;;;;;;;;;;4996275;28;20049;-55
2023/03/11 11:19:52;;;;;;;6.70;1.73;;;;;;;;;;4998395;28;20065;-53
2023/03/11 11:22:20;;;;;;;2.15;1.30;;;;;;;;;;5008654;28;20042;-55
2023/03/11 11:24:50;;;;;;;3.38;1.50;;;;;;;;;;5006423;28;20419;-55
2023/03/11 11:27:22;;;;;;;7.78;1.77;;;;;;;;;;5008322;28;20026;-56
2023/03/11 11:30:11;;;;;;;2.97;1.70;;;;;;;;;;5006492;28;20033;-56
2023/03/11 11:32:37;;;;;;;3.58;1.33;;;;;;;;;;4995304;28;20018;-56
2023/03/11 11:35:10;;;;;;;11.85;1.98;;;;;;;;;;5005832;28;20059;-54
2023/03/11 11:37:40;;;;;;;4.65;1.70;;;;;;;;;;5007616;28;20037;-56
2023/03/11 11:40:26;;;;;;;2.65;1.00;;;;;;;;;;5002944;28;20042;-55
2023/03/11 11:42:56;;;;;;;6.40;1.42;;;;;;;;;;4989276;28;20136;-54
2023/03/11 11:45:36;;;;;;;3.78;1.30;;;;;;;;;;5004021;28;20026;-55
2023/03/11 11:48:18;;;;;;;4.35;1.35;;;;;;;;;;5005511;28;20030;-56
2023/03/11 11:50:58;;;;;;;2.30;1.13;;;;;;;;;;4998232;28;20034;-56
2023/03/11 11:53:33;;;;;;;3.05;1.60;;;;;;;;;;5002541;28;20038;-56
2023/03/11 11:56:00;;;;;;;3.75;1.27;;;;;;;;;;5004597;28;20049;-56
2023/03/11 11:58:26;;;;;;;4.55;1.40;;;;;;;;;;4995949;28;20040;-56
2023/03/11 12:01:03;;;;;;;2.65;1.70;;;;;;;;;;5003501;28;20030;-56
2023/03/11 12:03:43;;;;;;;2.95;1.52;;;;;;;;;;5007301;28;20042;-56
2023/03/11 12:06:37;;;;;;;5.97;2.38;;;;;;;;;;5007436;28;20408;-56
2023/03/11 12:09:25;;;;;;;4.78;1.65;;;;;;;;;;4995018;28;20049;-56
2023/03/11 12:12:11;;;;;;;5.72;2.00;;;;;;;;;;5006315;28;20412;-56
2023/03/11 12:14:49;;;;;;;3.80;1.40;;;;;;;;;;4997596;28;20041;-56
2023/03/11 12:17:17;;;;;;;6.97;2.13;;;;;;;;;;5001119;28;20067;-56
2023/03/11 12:20:19;;;;;;;4.93;2.10;;;;;;;;;;4998210;28;20033;-56
2023/03/11 12:23:10;;;;;;;5.90;2.55;;;;;;;;;;4996897;28;20129;-55
2023/03/11 12:25:40;;;;;;;7.15;2.58;;;;;;;;;;4993257;28;20042;-55
2023/03/11 12:28:08;;;;;;;5.40;2.63;;;;;;;;;;5013536;28;20038;-55
2023/03/11 12:30:42;;;;;;;9.75;2.60;;;;;;;;;;4998756;28;20041;-56
2023/03/11 12:33:39;;;;;;;4.30;2.53;;;;;;;;;;4995968;28;20039;-56
2023/03/11 12:36:06;;;;;;;14.73;3.38;;;;;;;;;;4994158;28;20547;-57
2023/03/11 12:38:33;;;;;;;8.43;2.45;;;;;;;;;;5007031;28;20447;-56
2023/03/11 12:41:04;;;;;;;11.35;3.90;;;;;;;;;;5006463;28;20061;-55
2023/03/11 12:43:29;;;;;;;4.28;1.90;;;;;;;;;;5005933;28;20057;-56
2023/03/11 12:46:08;;;;;;;7.05;2.45;;;;;;;;;;5004778;28;20478;-56
2023/03/11 12:48:43;;;;;;;5.68;2.40;;;;;;;;;;4999403;28;20065;-56
2023/03/11 12:51:32;;;;;;;6.85;2.83;;;;;;;;;;5001007;28;20042;-55
2023/03/11 12:53:57;;;;;;;9.70;2.92;;;;;;;;;;5003960;28;20034;-56
2023/03/11 12:56:42;;;;;;;6.93;2.40;;;;;;;;;;5004049;28;20415;-56
2023/03/11 12:59:29;;;;;;;8.27;2.80;;;;;;;;;;4997636;28;20511;-57
2023/03/11 13:02:23;;;;;;;6.28;2.60;;;;;;;;;;5005520;28;20054;-56
2023/03/11 13:05:08;;;;;;;6.47;2.40;;;;;;;;;;4996411;28;20050;-56
2023/03/11 13:07:45;;;;;;;7.40;2.17;;;;;;;;;;4998551;28;20038;-56
2023/03/11 13:10:12;;;;;;;9.82;2.88;;;;;;;;;;5000668;28;20519;-56
2023/03/11 13:12:45;;;;;;;10.15;2.70;;;;;;;;;;5006842;28;20581;-55
2023/03/11 13:15:17;;;;;;;6.25;2.33;;;;;;;;;;5006016;28;20040;-55
2023/03/11 13:18:14;;;;;;;3.53;2.00;;;;;;;;;;5006989;28;20411;-56
2023/03/11 13:20:42;;;;;;;5.82;2.35;;;;;;;;;;5002437;28;20057;-56
2023/03/11 13:23:07;;;;;;;6.45;2.30;;;;;;;;;;5006224;28;20038;-56
2023/03/11 13:26:01;;;;;;;6.25;2.35;;;;;;;;;;5005704;28;20514;-56
2023/03/11 13:28:33;;;;;;;5.50;2.35;;;;;;;;;;4994167;28;20404;-56
2023/03/11 13:31:04;;;;;;;6.20;2.08;;;;;;;;;;4993583;28;20042;-55
2023/03/11 13:34:03;;;;;;;5.63;2.47;;;;;;;;;;4998151;28;20072;-56
2023/03/11 13:37:10;;;;;;;5.72;3.00;;;;;;;;;;4998047;28;20038;-56
2023/03/11 13:39:35;;;;;;;5.43;2.72;;;;;;;;;;4990252;28;20214;-54
2023/03/11 13:42:03;;;;;;;6.63;2.75;;;;;;;;;;4999032;28;20519;-56
2023/03/11 13:44:33;;;;;;;4.63;2.40;;;;;;;;;;4997505;28;20025;-55
2023/03/11 13:47:04;;;;;;;9.43;2.33;;;;;;;;;;5000725;28;20096;-55
2023/03/11 13:49:37;;;;;;;7.47;2.38;;;;;;;;;;4997944;28;20065;-56
2023/03/11 13:52:07;;;;;;;11.20;2.95;;;;;;;;;;4991274;28;20756;-54
2023/03/11 13:55:02;;;;;;;6.22;2.20;;;;;;;;;;5005807;28;20065;-56
2023/03/11 13:57:32;;;;;;;7.72;2.45;;;;;;;;;;5000403;28;20042;-56
2023/03/11 14:00:04;;;;;;;10.20;2.45;;;;;;;;;;4996496;28;20037;-56
2023/03/11 14:02:30;;;;;;;5.95;2.45;;;;;;;;;;4997964;28;20060;-56
2023/03/11 14:05:05;;;;;;;5.85;2.80;;;;;;;;;;4994440;28;20415;-56
2023/03/11 14:07:33;;;;;;;6.80;2.25;;;;;;;;;;4997015;28;20038;-56
2023/03/11 14:10:29;;;;;;;3.95;2.13;;;;;;;;;;4997422;28;20061;-56
2023/03/11 14:13:16;;;;;;;6.47;2.45;;;;;;;;;;4987235;28;20045;-56
2023/03/11 14:15:50;;;;;;;4.25;2.00;;;;;;;;;;4999248;28;20038;-55
2023/03/11 14:18:45;;;;;;;5.47;2.10;;;;;;;;;;5001650;28;20046;-56
2023/03/11 14:21:21;;;;;;;4.32;2.05;;;;;;;;;;5002279;28;20044;-56
2023/03/11 14:23:49;;;;;;;6.75;2.55;;;;;;;;;;5000127;28;20044;-56
2023/03/11 14:26:22;;;;;;;9.45;2.60;;;;;;;;;;5000388;28;20530;-56
2023/03/11 14:28:53;;;;;;;6.72;2.40;;;;;;;;;;4992841;28;20124;-56
2023/03/11 14:31:30;;;;;;;6.35;2.20;;;;;;;;;;5000125;28;20041;-56
2023/03/11 14:34:18;;;;;;;4.93;2.20;;;;;;;;;;4996450;28;20046;-56
2023/03/11 14:36:56;;;;;;;4.97;2.22;;;;;;;;;;5000113;28;20057;-56
2023/03/11 14:39:37;;;;;;;5.82;2.55;;;;;;;;;;5001935;28;20071;-56
2023/03/11 14:42:06;;;;;;;7.10;2.35;;;;;;;;;;4996888;28;20088;-56
2023/03/11 14:44:34;;;;;;;7.78;2.35;;;;;;;;;;5000946;28;20466;-56
2023/03/11 14:47:07;;;;;;;5.50;2.30;;;;;;;;;;4993410;28;20147;-56
2023/03/11 14:49:32;;;;;;;6.80;2.72;;;;;;;;;;5002986;28;20046;-55
2023/03/11 14:52:02;;;;;;;8.18;2.70;;;;;;;;;;4999558;28;20095;-56
2023/03/11 14:54:32;;;;;;;9.23;2.63;;;;;;;;;;5002012;28;20176;-56